Thursday, May 26, 2016
18:23 UTC
  |  Log In   |  Register Free
Airport Search:

Branson Airport
(KBBG)

FAA data valid effective Mar 31 2016 - May 26 2016 (unless otherwise noted).

 
 
 
 
 
 
 
 
 
 
 
 
 
 
Summary: Branson (BBG)

Weather Summary


METAR for KBBG is not available. Closest METAR is for KFWB
KBBG  (most recent observation was updatred at 26:17 UTC)
261745Z 16006KT 10SM SCT030 BKN050 29/22 A2996

KFWB  (13.9 nm SE)   (most recent observation was updated at 26:17 UTC)
261755Z AUTO 17007G14KT 160V230 10SM CLR 29/22 A2995 RMK AO2

KHRO  (16.4 nm NW)   (most recent observation was updated at 26:17 UTC)
261753Z AUTO 17011G18KT 10SM SCT027 28/22 A2997 RMK AO2 SLP132 T02830217 10294 20228 58011

TAF for KBBG is not available.
KBBG
261720Z 2618/2718 16006KT P6SM BKN025 FM262000 15011KT P6SM VCTS BKN100CB FM270300 16007KT P6SM BKN150 FM270600 17005KT P6SM -SHRA VCTS BKN090CB FM271300 15007KT P6SM VCTS OVC030CB

KHRO  (16.4 nm NW)   (most recent observation was updatred at 26:17 UTC)
261738Z 2618/2718 18010G18KT P6SM VCTS SCT025 BKN050CB FM270000 17009KT P6SM SCT050 BKN100 FM270600 16008KT P6SM VCTS BKN025 OVC050CB FM271200 15008KT P6SM VCTS OVC012CB PROB30 2712/2718 4SM TSRA BR BKN007CB
GlobalAir.com is loading additional information.
 Current Weather at BBG
82.0 F° (28.0 C°)
Mostly Cloudy
South winds at 8.1 mph
Pressure:
29.99 in
Humidity:
70%
Wind:
South at 8.1 MPH (7 KT)
Dew Point:
71.6 F° (22.0 C°)
Visibility:
9.00 mi
BBG NOAA Radar

Runway Summary

ID Dimensions Surface Instrument Approaches
14/32 150 ft x 7140 ft Bituminous Concrete (grooved), Excellent Condition RNAV (GPS) RWY 14
ILS OR LOC RWY 32
RNAV (GPS) RWY 14
RNAV (GPS) RWY 32

Communications Summary


CTAF128.15
UNICOM122.95
ATIS124.625
WX AWOS-3
GROUND118.4 []
TOWER128.15 []
CLEARANCE DELIVERY118.4

Terminal Procedures Summary


Airport Diagram

Approaches
More Approaches
Special Minimums

Closest Alternate Airports with Instrument Procedures

KPLK - M. Graham Clark - Taney County - 5.8 nm NW from BBG

KFWB - Branson West Municipal - Emerson Field - 13.9 nm NW from BBG

KHRO - Boone County - 16.4 nm SE from BBG

4M1 - Carroll County - 22.4 nm SW from BBG

KFLP - Marion County Regional - 32.8 nm SE from BBG

94K - Cassville Municipal - 35.1 nm NW from BBG

2H2 - Jerry Sumners Sr Aurora Municipal - 35.1 nm NW from BBG

KAOV - Ava Bill Martin Memorial - 36.3 nm NE from BBG

KBPK - Baxter County - 36.6 nm SE from BBG

H34 - Huntsville Municipal - 38.2 nm SW from BBG

Find All Airport Services Find A Hotel Find A Rental Car Find A Golf Course Find A Restaurant $100 Hamburger



FBO's on the Field
FBO Company Facility Photos Services Transportation Aviation Fuel Prices: Prices include tax
Catering Weather Repair Courtesy Rental Type 100LL JetA JetA+ MOGAS 8087
 
Branson Jet Center

This FBO has not yet been rated
FS:Epic
Last Updated: May-09
Login to update fuel prices
SS:
Contact Branson Jet CenterMore FBO Information
 
Add another FBO Facility Photos Catering Weather Repair Courtesy Rental Type 100LL JetA JetA+ MOGAS 8087
Services Transportation Aviation Fuel Prices: Prices include tax


model-print
model-print
model-print
model-print